sensor_id;sensor_type;location;lat;lon;timestamp;P1;durP1;ratioP1;P2;durP2;ratioP2
8881;SDS011;4477;48.736;9.176;2024-01-25T00:00:50;12.57;;;3.37;;
8881;SDS011;4477;48.736;9.176;2024-01-25T00:03:17;16.43;;;3.87;;
8881;SDS011;4477;48.736;9.176;2024-01-25T00:05:43;14.57;;;4.30;;
8881;SDS011;4477;48.736;9.176;2024-01-25T00:08:10;13.43;;;3.80;;
8881;SDS011;4477;48.736;9.176;2024-01-25T00:10:38;14.23;;;3.80;;
8881;SDS011;4477;48.736;9.176;2024-01-25T00:13:05;18.40;;;3.70;;
8881;SDS011;4477;48.736;9.176;2024-01-25T00:15:32;16.37;;;3.50;;
8881;SDS011;4477;48.736;9.176;2024-01-25T00:17:59;18.67;;;4.43;;
8881;SDS011;4477;48.736;9.176;2024-01-25T00:20:26;15.77;;;3.83;;
8881;SDS011;4477;48.736;9.176;2024-01-25T00:22:53;15.17;;;3.83;;
8881;SDS011;4477;48.736;9.176;2024-01-25T00:25:20;16.33;;;3.63;;
8881;SDS011;4477;48.736;9.176;2024-01-25T00:27:48;24.27;;;4.40;;
8881;SDS011;4477;48.736;9.176;2024-01-25T00:30:15;15.90;;;3.77;;
8881;SDS011;4477;48.736;9.176;2024-01-25T00:32:42;13.23;;;3.67;;
8881;SDS011;4477;48.736;9.176;2024-01-25T00:35:10;17.93;;;3.97;;
8881;SDS011;4477;48.736;9.176;2024-01-25T00:37:39;15.70;;;3.97;;
8881;SDS011;4477;48.736;9.176;2024-01-25T00:40:06;22.60;;;4.30;;
8881;SDS011;4477;48.736;9.176;2024-01-25T00:42:34;20.23;;;3.90;;
8881;SDS011;4477;48.736;9.176;2024-01-25T00:45:10;15.80;;;3.63;;
8881;SDS011;4477;48.736;9.176;2024-01-25T00:47:38;17.83;;;3.47;;
8881;SDS011;4477;48.736;9.176;2024-01-25T00:50:06;19.47;;;4.43;;
8881;SDS011;4477;48.736;9.176;2024-01-25T00:52:33;12.77;;;3.53;;
8881;SDS011;4477;48.736;9.176;2024-01-25T00:55:01;15.17;;;3.87;;
8881;SDS011;4477;48.736;9.176;2024-01-25T00:57:29;18.27;;;4.20;;
8881;SDS011;4477;48.736;9.176;2024-01-25T00:59:56;13.20;;;3.77;;
8881;SDS011;4477;48.736;9.176;2024-01-25T01:02:25;14.80;;;3.77;;
8881;SDS011;4477;48.736;9.176;2024-01-25T01:04:56;15.97;;;4.00;;
8881;SDS011;4477;48.736;9.176;2024-01-25T01:07:24;17.10;;;3.70;;
8881;SDS011;4477;48.736;9.176;2024-01-25T01:09:53;14.87;;;3.20;;
8881;SDS011;4477;48.736;9.176;2024-01-25T01:12:20;15.80;;;3.37;;
8881;SDS011;4477;48.736;9.176;2024-01-25T01:14:47;17.37;;;4.50;;
8881;SDS011;4477;48.736;9.176;2024-01-25T01:17:14;17.23;;;3.83;;
8881;SDS011;4477;48.736;9.176;2024-01-25T01:19:42;13.70;;;3.50;;
8881;SDS011;4477;48.736;9.176;2024-01-25T01:22:10;13.73;;;3.77;;
8881;SDS011;4477;48.736;9.176;2024-01-25T01:24:37;13.40;;;3.40;;
8881;SDS011;4477;48.736;9.176;2024-01-25T01:27:03;13.97;;;3.87;;
8881;SDS011;4477;48.736;9.176;2024-01-25T01:29:30;17.53;;;3.40;;
8881;SDS011;4477;48.736;9.176;2024-01-25T01:31:57;18.53;;;4.33;;
8881;SDS011;4477;48.736;9.176;2024-01-25T01:34:24;11.63;;;3.03;;
8881;SDS011;4477;48.736;9.176;2024-01-25T01:36:52;20.00;;;4.13;;
8881;SDS011;4477;48.736;9.176;2024-01-25T01:39:19;15.77;;;3.90;;
8881;SDS011;4477;48.736;9.176;2024-01-25T01:41:46;15.57;;;4.03;;
8881;SDS011;4477;48.736;9.176;2024-01-25T01:44:14;20.17;;;3.57;;
8881;SDS011;4477;48.736;9.176;2024-01-25T01:46:41;15.77;;;3.90;;
8881;SDS011;4477;48.736;9.176;2024-01-25T01:49:10;12.43;;;3.83;;
8881;SDS011;4477;48.736;9.176;2024-01-25T01:51:38;16.17;;;3.10;;
8881;SDS011;4477;48.736;9.176;2024-01-25T01:54:09;19.50;;;4.10;;
8881;SDS011;4477;48.736;9.176;2024-01-25T01:56:36;12.33;;;3.23;;
8881;SDS011;4477;48.736;9.176;2024-01-25T01:59:05;16.20;;;3.97;;
8881;SDS011;4477;48.736;9.176;2024-01-25T02:01:35;12.50;;;3.50;;
8881;SDS011;4477;48.736;9.176;2024-01-25T02:04:02;14.43;;;3.93;;
8881;SDS011;4477;48.736;9.176;2024-01-25T02:06:29;16.10;;;3.50;;
8881;SDS011;4477;48.736;9.176;2024-01-25T02:08:56;15.23;;;4.40;;
8881;SDS011;4477;48.736;9.176;2024-01-25T02:11:25;21.77;;;4.37;;
8881;SDS011;4477;48.736;9.176;2024-01-25T02:13:52;13.73;;;4.07;;
8881;SDS011;4477;48.736;9.176;2024-01-25T02:16:19;16.93;;;3.13;;
8881;SDS011;4477;48.736;9.176;2024-01-25T02:18:46;14.10;;;3.73;;
8881;SDS011;4477;48.736;9.176;2024-01-25T02:21:13;17.77;;;3.90;;
8881;SDS011;4477;48.736;9.176;2024-01-25T02:23:42;11.50;;;3.03;;
8881;SDS011;4477;48.736;9.176;2024-01-25T02:26:09;20.63;;;4.40;;
8881;SDS011;4477;48.736;9.176;2024-01-25T02:28:35;14.90;;;3.27;;
8881;SDS011;4477;48.736;9.176;2024-01-25T02:31:03;14.87;;;3.37;;
8881;SDS011;4477;48.736;9.176;2024-01-25T02:33:30;19.00;;;4.17;;
8881;SDS011;4477;48.736;9.176;2024-01-25T02:35:57;13.57;;;3.50;;
8881;SDS011;4477;48.736;9.176;2024-01-25T02:38:24;13.13;;;3.30;;
8881;SDS011;4477;48.736;9.176;2024-01-25T02:40:53;15.53;;;3.13;;
8881;SDS011;4477;48.736;9.176;2024-01-25T02:43:20;16.63;;;3.73;;
8881;SDS011;4477;48.736;9.176;2024-01-25T02:45:47;11.80;;;2.80;;
8881;SDS011;4477;48.736;9.176;2024-01-25T02:48:14;10.67;;;3.03;;
8881;SDS011;4477;48.736;9.176;2024-01-25T02:50:41;13.30;;;4.13;;
8881;SDS011;4477;48.736;9.176;2024-01-25T02:53:08;14.23;;;3.30;;
8881;SDS011;4477;48.736;9.176;2024-01-25T02:55:35;15.13;;;3.20;;
8881;SDS011;4477;48.736;9.176;2024-01-25T02:58:03;11.67;;;3.23;;
8881;SDS011;4477;48.736;9.176;2024-01-25T03:00:30;14.03;;;4.07;;
8881;SDS011;4477;48.736;9.176;2024-01-25T03:02:57;20.27;;;4.00;;
8881;SDS011;4477;48.736;9.176;2024-01-25T03:05:24;11.53;;;3.20;;
8881;SDS011;4477;48.736;9.176;2024-01-25T03:07:51;19.13;;;3.00;;
8881;SDS011;4477;48.736;9.176;2024-01-25T03:10:18;16.93;;;3.37;;
8881;SDS011;4477;48.736;9.176;2024-01-25T03:12:45;12.70;;;3.30;;
8881;SDS011;4477;48.736;9.176;2024-01-25T03:15:13;12.27;;;3.03;;
8881;SDS011;4477;48.736;9.176;2024-01-25T03:17:41;14.97;;;2.70;;
8881;SDS011;4477;48.736;9.176;2024-01-25T03:20:08;14.17;;;3.00;;
8881;SDS011;4477;48.736;9.176;2024-01-25T03:22:36;14.20;;;3.27;;
8881;SDS011;4477;48.736;9.176;2024-01-25T03:25:03;14.57;;;3.67;;
8881;SDS011;4477;48.736;9.176;2024-01-25T03:27:30;14.83;;;3.37;;
8881;SDS011;4477;48.736;9.176;2024-01-25T03:29:57;15.03;;;3.20;;
8881;SDS011;4477;48.736;9.176;2024-01-25T03:32:25;10.90;;;2.87;;
8881;SDS011;4477;48.736;9.176;2024-01-25T03:34:52;14.50;;;3.47;;
8881;SDS011;4477;48.736;9.176;2024-01-25T03:37:19;26.57;;;4.17;;
8881;SDS011;4477;48.736;9.176;2024-01-25T03:39:46;20.07;;;3.27;;
8881;SDS011;4477;48.736;9.176;2024-01-25T03:42:13;17.57;;;4.20;;
8881;SDS011;4477;48.736;9.176;2024-01-25T03:44:40;11.30;;;3.33;;
8881;SDS011;4477;48.736;9.176;2024-01-25T03:47:07;14.17;;;3.40;;
8881;SDS011;4477;48.736;9.176;2024-01-25T03:49:36;16.30;;;4.40;;
8881;SDS011;4477;48.736;9.176;2024-01-25T03:52:04;15.60;;;3.63;;
8881;SDS011;4477;48.736;9.176;2024-01-25T03:54:31;14.87;;;3.43;;
8881;SDS011;4477;48.736;9.176;2024-01-25T03:56:58;22.47;;;3.50;;
8881;SDS011;4477;48.736;9.176;2024-01-25T03:59:25;15.43;;;3.40;;
8881;SDS011;4477;48.736;9.176;2024-01-25T04:01:52;12.33;;;3.13;;
8881;SDS011;4477;48.736;9.176;2024-01-25T04:04:19;16.13;;;3.87;;
8881;SDS011;4477;48.736;9.176;2024-01-25T04:06:47;15.57;;;3.40;;
8881;SDS011;4477;48.736;9.176;2024-01-25T04:09:14;13.77;;;3.40;;
8881;SDS011;4477;48.736;9.176;2024-01-25T04:11:41;12.30;;;3.63;;
8881;SDS011;4477;48.736;9.176;2024-01-25T04:14:08;19.80;;;3.87;;
8881;SDS011;4477;48.736;9.176;2024-01-25T04:16:35;14.20;;;3.53;;
8881;SDS011;4477;48.736;9.176;2024-01-25T04:19:02;14.20;;;3.37;;
8881;SDS011;4477;48.736;9.176;2024-01-25T04:21:29;12.40;;;3.80;;
8881;SDS011;4477;48.736;9.176;2024-01-25T04:23:57;14.73;;;3.27;;
8881;SDS011;4477;48.736;9.176;2024-01-25T04:26:24;12.20;;;3.40;;
8881;SDS011;4477;48.736;9.176;2024-01-25T04:28:51;15.13;;;3.77;;
8881;SDS011;4477;48.736;9.176;2024-01-25T04:31:18;16.50;;;3.60;;
8881;SDS011;4477;48.736;9.176;2024-01-25T04:33:45;15.70;;;3.80;;
8881;SDS011;4477;48.736;9.176;2024-01-25T04:36:12;18.33;;;4.27;;
8881;SDS011;4477;48.736;9.176;2024-01-25T04:38:39;13.33;;;3.47;;
8881;SDS011;4477;48.736;9.176;2024-01-25T04:41:07;11.90;;;3.10;;
8881;SDS011;4477;48.736;9.176;2024-01-25T04:43:34;12.63;;;3.17;;
8881;SDS011;4477;48.736;9.176;2024-01-25T04:46:02;12.50;;;3.77;;
8881;SDS011;4477;48.736;9.176;2024-01-25T04:48:29;12.53;;;3.90;;
8881;SDS011;4477;48.736;9.176;2024-01-25T04:50:56;14.17;;;3.13;;
8881;SDS011;4477;48.736;9.176;2024-01-25T04:53:24;15.33;;;3.67;;
8881;SDS011;4477;48.736;9.176;2024-01-25T04:55:51;15.10;;;4.33;;
8881;SDS011;4477;48.736;9.176;2024-01-25T04:58:21;13.77;;;3.70;;
8881;SDS011;4477;48.736;9.176;2024-01-25T05:00:48;13.07;;;3.53;;
8881;SDS011;4477;48.736;9.176;2024-01-25T05:03:17;15.43;;;3.83;;
8881;SDS011;4477;48.736;9.176;2024-01-25T05:05:44;12.87;;;3.40;;
8881;SDS011;4477;48.736;9.176;2024-01-25T05:08:11;15.97;;;3.57;;
8881;SDS011;4477;48.736;9.176;2024-01-25T05:10:38;15.30;;;3.67;;
8881;SDS011;4477;48.736;9.176;2024-01-25T05:13:05;16.10;;;4.10;;
8881;SDS011;4477;48.736;9.176;2024-01-25T05:15:34;10.73;;;2.87;;
8881;SDS011;4477;48.736;9.176;2024-01-25T05:18:02;14.17;;;3.67;;
8881;SDS011;4477;48.736;9.176;2024-01-25T05:20:29;15.93;;;3.67;;
8881;SDS011;4477;48.736;9.176;2024-01-25T05:22:59;14.53;;;4.00;;
8881;SDS011;4477;48.736;9.176;2024-01-25T05:25:26;17.73;;;4.03;;
8881;SDS011;4477;48.736;9.176;2024-01-25T05:27:53;15.80;;;3.90;;
8881;SDS011;4477;48.736;9.176;2024-01-25T05:30:20;17.93;;;4.20;;
8881;SDS011;4477;48.736;9.176;2024-01-25T05:32:49;11.57;;;3.33;;
8881;SDS011;4477;48.736;9.176;2024-01-25T05:35:18;15.17;;;3.63;;
8881;SDS011;4477;48.736;9.176;2024-01-25T05:37:45;11.43;;;3.30;;
8881;SDS011;4477;48.736;9.176;2024-01-25T05:40:12;14.33;;;3.60;;
8881;SDS011;4477;48.736;9.176;2024-01-25T05:42:39;16.33;;;4.30;;
8881;SDS011;4477;48.736;9.176;2024-01-25T05:45:07;13.40;;;3.83;;
8881;SDS011;4477;48.736;9.176;2024-01-25T05:47:35;14.33;;;3.90;;
8881;SDS011;4477;48.736;9.176;2024-01-25T05:50:03;16.60;;;3.87;;
8881;SDS011;4477;48.736;9.176;2024-01-25T05:52:31;12.33;;;3.33;;
8881;SDS011;4477;48.736;9.176;2024-01-25T05:55:01;14.80;;;3.97;;
8881;SDS011;4477;48.736;9.176;2024-01-25T05:57:29;21.73;;;4.73;;
8881;SDS011;4477;48.736;9.176;2024-01-25T05:59:56;14.33;;;4.40;;
8881;SDS011;4477;48.736;9.176;2024-01-25T06:02:23;18.97;;;4.40;;
8881;SDS011;4477;48.736;9.176;2024-01-25T06:04:50;16.33;;;4.03;;
8881;SDS011;4477;48.736;9.176;2024-01-25T06:07:19;17.83;;;4.47;;
8881;SDS011;4477;48.736;9.176;2024-01-25T06:09:46;14.83;;;4.37;;
8881;SDS011;4477;48.736;9.176;2024-01-25T06:12:13;18.37;;;4.13;;
8881;SDS011;4477;48.736;9.176;2024-01-25T06:14:40;16.37;;;4.50;;
8881;SDS011;4477;48.736;9.176;2024-01-25T06:17:07;17.50;;;4.00;;
8881;SDS011;4477;48.736;9.176;2024-01-25T06:19:34;19.60;;;4.90;;
8881;SDS011;4477;48.736;9.176;2024-01-25T06:22:01;19.40;;;4.53;;
8881;SDS011;4477;48.736;9.176;2024-01-25T06:24:30;16.50;;;5.43;;
8881;SDS011;4477;48.736;9.176;2024-01-25T06:26:57;16.43;;;4.57;;
8881;SDS011;4477;48.736;9.176;2024-01-25T06:29:24;16.10;;;4.47;;
8881;SDS011;4477;48.736;9.176;2024-01-25T06:31:51;18.87;;;5.60;;
8881;SDS011;4477;48.736;9.176;2024-01-25T06:34:18;16.70;;;4.47;;
8881;SDS011;4477;48.736;9.176;2024-01-25T06:36:45;16.00;;;4.80;;
8881;SDS011;4477;48.736;9.176;2024-01-25T06:39:12;21.90;;;6.00;;
8881;SDS011;4477;48.736;9.176;2024-01-25T06:41:40;20.37;;;5.23;;
8881;SDS011;4477;48.736;9.176;2024-01-25T06:44:07;20.73;;;4.87;;
8881;SDS011;4477;48.736;9.176;2024-01-25T06:46:34;22.30;;;4.90;;
8881;SDS011;4477;48.736;9.176;2024-01-25T06:49:01;26.73;;;5.27;;
8881;SDS011;4477;48.736;9.176;2024-01-25T06:51:28;14.70;;;5.00;;
8881;SDS011;4477;48.736;9.176;2024-01-25T06:53:55;18.73;;;5.30;;
8881;SDS011;4477;48.736;9.176;2024-01-25T06:56:22;22.77;;;4.83;;
8881;SDS011;4477;48.736;9.176;2024-01-25T06:58:50;23.80;;;4.73;;
8881;SDS011;4477;48.736;9.176;2024-01-25T07:01:20;17.13;;;4.40;;
8881;SDS011;4477;48.736;9.176;2024-01-25T07:03:47;20.93;;;4.97;;
8881;SDS011;4477;48.736;9.176;2024-01-25T07:06:15;18.90;;;4.63;;
8881;SDS011;4477;48.736;9.176;2024-01-25T07:08:43;21.20;;;5.07;;
8881;SDS011;4477;48.736;9.176;2024-01-25T07:11:10;16.27;;;4.90;;
8881;SDS011;4477;48.736;9.176;2024-01-25T07:13:37;18.70;;;4.27;;
8881;SDS011;4477;48.736;9.176;2024-01-25T07:16:06;16.23;;;4.40;;
8881;SDS011;4477;48.736;9.176;2024-01-25T07:18:33;22.53;;;4.90;;
8881;SDS011;4477;48.736;9.176;2024-01-25T07:21:00;20.27;;;5.17;;
8881;SDS011;4477;48.736;9.176;2024-01-25T07:23:28;16.53;;;5.33;;
8881;SDS011;4477;48.736;9.176;2024-01-25T07:25:56;24.00;;;6.00;;
8881;SDS011;4477;48.736;9.176;2024-01-25T07:28:23;23.07;;;5.50;;
8881;SDS011;4477;48.736;9.176;2024-01-25T07:30:50;17.73;;;5.00;;
8881;SDS011;4477;48.736;9.176;2024-01-25T07:33:18;19.73;;;5.80;;
8881;SDS011;4477;48.736;9.176;2024-01-25T07:35:45;23.67;;;5.80;;
8881;SDS011;4477;48.736;9.176;2024-01-25T07:38:13;19.33;;;5.40;;
8881;SDS011;4477;48.736;9.176;2024-01-25T07:40:40;23.87;;;5.77;;
8881;SDS011;4477;48.736;9.176;2024-01-25T07:43:07;22.13;;;6.10;;
8881;SDS011;4477;48.736;9.176;2024-01-25T07:45:34;21.37;;;5.50;;
8881;SDS011;4477;48.736;9.176;2024-01-25T07:48:01;32.80;;;6.40;;
8881;SDS011;4477;48.736;9.176;2024-01-25T07:50:30;17.93;;;5.27;;
8881;SDS011;4477;48.736;9.176;2024-01-25T07:52:57;24.30;;;5.27;;
8881;SDS011;4477;48.736;9.176;2024-01-25T07:55:26;17.87;;;5.30;;
8881;SDS011;4477;48.736;9.176;2024-01-25T07:57:54;23.03;;;5.13;;
8881;SDS011;4477;48.736;9.176;2024-01-25T08:00:21;23.67;;;4.87;;
8881;SDS011;4477;48.736;9.176;2024-01-25T08:02:48;15.00;;;4.20;;
8881;SDS011;4477;48.736;9.176;2024-01-25T08:05:15;17.83;;;4.83;;
8881;SDS011;4477;48.736;9.176;2024-01-25T08:07:44;19.23;;;5.00;;
8881;SDS011;4477;48.736;9.176;2024-01-25T08:10:12;20.60;;;5.17;;
8881;SDS011;4477;48.736;9.176;2024-01-25T08:12:39;18.63;;;4.57;;
8881;SDS011;4477;48.736;9.176;2024-01-25T08:15:09;14.37;;;4.87;;
8881;SDS011;4477;48.736;9.176;2024-01-25T08:17:37;16.37;;;4.17;;
8881;SDS011;4477;48.736;9.176;2024-01-25T08:20:04;18.37;;;5.03;;
8881;SDS011;4477;48.736;9.176;2024-01-25T08:22:32;17.50;;;5.20;;
8881;SDS011;4477;48.736;9.176;2024-01-25T08:25:01;13.53;;;4.57;;
8881;SDS011;4477;48.736;9.176;2024-01-25T08:27:29;14.90;;;3.83;;
8881;SDS011;4477;48.736;9.176;2024-01-25T08:29:56;17.57;;;3.90;;
8881;SDS011;4477;48.736;9.176;2024-01-25T08:32:23;15.33;;;4.63;;
8881;SDS011;4477;48.736;9.176;2024-01-25T08:34:50;17.27;;;4.80;;
8881;SDS011;4477;48.736;9.176;2024-01-25T08:37:17;13.77;;;4.00;;
8881;SDS011;4477;48.736;9.176;2024-01-25T08:39:44;21.67;;;4.60;;
8881;SDS011;4477;48.736;9.176;2024-01-25T08:42:16;12.47;;;3.80;;
8881;SDS011;4477;48.736;9.176;2024-01-25T08:44:43;15.03;;;4.40;;
8881;SDS011;4477;48.736;9.176;2024-01-25T08:47:14;19.33;;;4.20;;
8881;SDS011;4477;48.736;9.176;2024-01-25T08:49:41;15.50;;;3.50;;
8881;SDS011;4477;48.736;9.176;2024-01-25T08:52:08;14.03;;;3.83;;
8881;SDS011;4477;48.736;9.176;2024-01-25T08:54:35;13.77;;;3.17;;
8881;SDS011;4477;48.736;9.176;2024-01-25T08:57:03;17.00;;;3.77;;
8881;SDS011;4477;48.736;9.176;2024-01-25T08:59:32;16.73;;;3.80;;
8881;SDS011;4477;48.736;9.176;2024-01-25T09:02:00;14.67;;;3.83;;
8881;SDS011;4477;48.736;9.176;2024-01-25T09:04:27;11.77;;;3.57;;
8881;SDS011;4477;48.736;9.176;2024-01-25T09:06:54;14.77;;;3.80;;
8881;SDS011;4477;48.736;9.176;2024-01-25T09:09:21;16.70;;;3.90;;
8881;SDS011;4477;48.736;9.176;2024-01-25T09:11:48;18.13;;;3.60;;
8881;SDS011;4477;48.736;9.176;2024-01-25T09:14:15;16.67;;;3.47;;
8881;SDS011;4477;48.736;9.176;2024-01-25T09:16:43;8.97;;;3.27;;
8881;SDS011;4477;48.736;9.176;2024-01-25T09:19:10;12.47;;;3.30;;
8881;SDS011;4477;48.736;9.176;2024-01-25T09:21:38;11.10;;;3.67;;
8881;SDS011;4477;48.736;9.176;2024-01-25T09:24:05;15.50;;;3.77;;
8881;SDS011;4477;48.736;9.176;2024-01-25T09:26:32;11.13;;;3.90;;
8881;SDS011;4477;48.736;9.176;2024-01-25T09:28:59;14.00;;;3.10;;
8881;SDS011;4477;48.736;9.176;2024-01-25T09:31:26;7.23;;;3.07;;
8881;SDS011;4477;48.736;9.176;2024-01-25T09:33:54;11.33;;;3.13;;
8881;SDS011;4477;48.736;9.176;2024-01-25T09:36:21;13.33;;;3.57;;
8881;SDS011;4477;48.736;9.176;2024-01-25T09:38:48;13.83;;;3.27;;
8881;SDS011;4477;48.736;9.176;2024-01-25T09:41:15;12.83;;;3.10;;
8881;SDS011;4477;48.736;9.176;2024-01-25T09:43:42;13.70;;;3.90;;
8881;SDS011;4477;48.736;9.176;2024-01-25T09:46:10;13.87;;;3.10;;
8881;SDS011;4477;48.736;9.176;2024-01-25T09:48:39;14.67;;;2.97;;
8881;SDS011;4477;48.736;9.176;2024-01-25T09:51:10;10.93;;;3.00;;
8881;SDS011;4477;48.736;9.176;2024-01-25T09:53:38;9.53;;;2.83;;
8881;SDS011;4477;48.736;9.176;2024-01-25T09:56:06;12.67;;;3.33;;
8881;SDS011;4477;48.736;9.176;2024-01-25T09:58:36;16.30;;;3.23;;
8881;SDS011;4477;48.736;9.176;2024-01-25T10:01:05;8.60;;;2.90;;
8881;SDS011;4477;48.736;9.176;2024-01-25T10:03:35;12.87;;;3.40;;
8881;SDS011;4477;48.736;9.176;2024-01-25T10:06:02;13.27;;;3.37;;
8881;SDS011;4477;48.736;9.176;2024-01-25T10:08:32;8.77;;;3.17;;
8881;SDS011;4477;48.736;9.176;2024-01-25T10:10:59;11.03;;;3.27;;
8881;SDS011;4477;48.736;9.176;2024-01-25T10:13:26;11.17;;;2.90;;
8881;SDS011;4477;48.736;9.176;2024-01-25T10:15:53;11.73;;;2.90;;
8881;SDS011;4477;48.736;9.176;2024-01-25T10:18:21;12.07;;;2.97;;
8881;SDS011;4477;48.736;9.176;2024-01-25T10:20:48;9.60;;;2.80;;
8881;SDS011;4477;48.736;9.176;2024-01-25T10:23:15;9.63;;;2.40;;
8881;SDS011;4477;48.736;9.176;2024-01-25T10:25:44;16.27;;;3.27;;
8881;SDS011;4477;48.736;9.176;2024-01-25T10:28:11;11.87;;;3.00;;
8881;SDS011;4477;48.736;9.176;2024-01-25T10:30:38;14.47;;;3.10;;
8881;SDS011;4477;48.736;9.176;2024-01-25T10:33:05;12.73;;;3.07;;
8881;SDS011;4477;48.736;9.176;2024-01-25T10:35:33;12.20;;;3.60;;
8881;SDS011;4477;48.736;9.176;2024-01-25T10:38:02;11.27;;;2.73;;
8881;SDS011;4477;48.736;9.176;2024-01-25T10:40:30;10.23;;;2.80;;
8881;SDS011;4477;48.736;9.176;2024-01-25T10:42:58;13.33;;;3.20;;
8881;SDS011;4477;48.736;9.176;2024-01-25T10:45:25;9.97;;;2.37;;
8881;SDS011;4477;48.736;9.176;2024-01-25T10:47:52;8.60;;;2.50;;
8881;SDS011;4477;48.736;9.176;2024-01-25T10:50:19;9.20;;;2.30;;
8881;SDS011;4477;48.736;9.176;2024-01-25T10:52:47;13.27;;;3.23;;
8881;SDS011;4477;48.736;9.176;2024-01-25T10:55:14;9.90;;;2.73;;
8881;SDS011;4477;48.736;9.176;2024-01-25T10:57:43;7.07;;;2.33;;
8881;SDS011;4477;48.736;9.176;2024-01-25T11:00:12;9.97;;;3.20;;
8881;SDS011;4477;48.736;9.176;2024-01-25T11:02:41;6.63;;;2.43;;
8881;SDS011;4477;48.736;9.176;2024-01-25T11:05:10;7.70;;;2.60;;
8881;SDS011;4477;48.736;9.176;2024-01-25T11:07:42;12.20;;;3.13;;
8881;SDS011;4477;48.736;9.176;2024-01-25T11:10:16;8.20;;;2.47;;
8881;SDS011;4477;48.736;9.176;2024-01-25T11:12:51;5.53;;;2.37;;
8881;SDS011;4477;48.736;9.176;2024-01-25T11:15:23;9.17;;;2.67;;
8881;SDS011;4477;48.736;9.176;2024-01-25T11:17:55;9.13;;;2.70;;
8881;SDS011;4477;48.736;9.176;2024-01-25T11:20:23;13.33;;;2.63;;
8881;SDS011;4477;48.736;9.176;2024-01-25T11:22:55;15.27;;;2.90;;
8881;SDS011;4477;48.736;9.176;2024-01-25T11:25:23;12.47;;;2.97;;
8881;SDS011;4477;48.736;9.176;2024-01-25T11:27:53;13.47;;;2.70;;
8881;SDS011;4477;48.736;9.176;2024-01-25T11:30:20;8.63;;;2.67;;
8881;SDS011;4477;48.736;9.176;2024-01-25T11:32:49;11.03;;;2.33;;
8881;SDS011;4477;48.736;9.176;2024-01-25T11:35:16;9.07;;;2.70;;
8881;SDS011;4477;48.736;9.176;2024-01-25T11:37:43;11.30;;;2.60;;
8881;SDS011;4477;48.736;9.176;2024-01-25T11:40:11;10.10;;;3.00;;
8881;SDS011;4477;48.736;9.176;2024-01-25T11:42:38;9.00;;;2.57;;
8881;SDS011;4477;48.736;9.176;2024-01-25T11:45:07;9.27;;;2.60;;
8881;SDS011;4477;48.736;9.176;2024-01-25T11:47:36;9.07;;;2.50;;
8881;SDS011;4477;48.736;9.176;2024-01-25T11:50:03;8.17;;;2.50;;
8881;SDS011;4477;48.736;9.176;2024-01-25T11:52:32;11.30;;;2.73;;
8881;SDS011;4477;48.736;9.176;2024-01-25T11:54:59;6.37;;;2.60;;
8881;SDS011;4477;48.736;9.176;2024-01-25T11:57:26;9.40;;;2.47;;
8881;SDS011;4477;48.736;9.176;2024-01-25T11:59:54;7.63;;;2.10;;
8881;SDS011;4477;48.736;9.176;2024-01-25T12:02:22;5.23;;;2.10;;
8881;SDS011;4477;48.736;9.176;2024-01-25T12:04:51;6.37;;;1.77;;
8881;SDS011;4477;48.736;9.176;2024-01-25T12:07:19;7.90;;;2.73;;
8881;SDS011;4477;48.736;9.176;2024-01-25T12:09:56;7.73;;;1.90;;
8881;SDS011;4477;48.736;9.176;2024-01-25T12:12:24;11.10;;;2.37;;
8881;SDS011;4477;48.736;9.176;2024-01-25T12:14:51;8.60;;;2.10;;
8881;SDS011;4477;48.736;9.176;2024-01-25T12:17:23;4.57;;;1.80;;
8881;SDS011;4477;48.736;9.176;2024-01-25T12:19:51;9.13;;;2.33;;
8881;SDS011;4477;48.736;9.176;2024-01-25T12:22:21;7.17;;;1.90;;
8881;SDS011;4477;48.736;9.176;2024-01-25T12:24:48;6.87;;;1.90;;
8881;SDS011;4477;48.736;9.176;2024-01-25T12:27:16;7.70;;;2.03;;
8881;SDS011;4477;48.736;9.176;2024-01-25T12:29:43;6.90;;;2.27;;
8881;SDS011;4477;48.736;9.176;2024-01-25T12:32:10;7.37;;;2.07;;
8881;SDS011;4477;48.736;9.176;2024-01-25T12:34:37;7.43;;;1.97;;
8881;SDS011;4477;48.736;9.176;2024-01-25T12:37:07;6.60;;;1.80;;
8881;SDS011;4477;48.736;9.176;2024-01-25T12:39:34;6.77;;;2.00;;
8881;SDS011;4477;48.736;9.176;2024-01-25T12:42:01;6.57;;;2.20;;
8881;SDS011;4477;48.736;9.176;2024-01-25T12:44:28;6.53;;;2.07;;
8881;SDS011;4477;48.736;9.176;2024-01-25T12:46:55;5.60;;;1.60;;
8881;SDS011;4477;48.736;9.176;2024-01-25T12:49:26;5.93;;;2.50;;
8881;SDS011;4477;48.736;9.176;2024-01-25T12:51:54;5.60;;;1.77;;
8881;SDS011;4477;48.736;9.176;2024-01-25T12:54:22;5.45;;;1.70;;
8881;SDS011;4477;48.736;9.176;2024-01-25T12:56:49;5.20;;;2.00;;
8881;SDS011;4477;48.736;9.176;2024-01-25T12:59:16;8.90;;;2.42;;
8881;SDS011;4477;48.736;9.176;2024-01-25T13:01:43;6.82;;;1.70;;
8881;SDS011;4477;48.736;9.176;2024-01-25T13:04:10;7.18;;;1.75;;
8881;SDS011;4477;48.736;9.176;2024-01-25T13:06:37;10.87;;;2.23;;
8881;SDS011;4477;48.736;9.176;2024-01-25T13:09:04;6.00;;;1.93;;
8881;SDS011;4477;48.736;9.176;2024-01-25T13:11:32;5.77;;;1.83;;
8881;SDS011;4477;48.736;9.176;2024-01-25T13:13:59;8.90;;;2.47;;
8881;SDS011;4477;48.736;9.176;2024-01-25T13:16:26;5.40;;;2.10;;
8881;SDS011;4477;48.736;9.176;2024-01-25T13:18:53;6.53;;;1.92;;
8881;SDS011;4477;48.736;9.176;2024-01-25T13:21:20;5.10;;;2.20;;
8881;SDS011;4477;48.736;9.176;2024-01-25T13:23:47;8.17;;;2.20;;
8881;SDS011;4477;48.736;9.176;2024-01-25T13:26:13;8.50;;;2.70;;
8881;SDS011;4477;48.736;9.176;2024-01-25T13:28:42;8.07;;;1.88;;
8881;SDS011;4477;48.736;9.176;2024-01-25T13:31:09;6.95;;;1.65;;
8881;SDS011;4477;48.736;9.176;2024-01-25T13:33:36;4.55;;;1.67;;
8881;SDS011;4477;48.736;9.176;2024-01-25T13:36:03;6.82;;;2.10;;
8881;SDS011;4477;48.736;9.176;2024-01-25T13:38:33;7.85;;;1.85;;
8881;SDS011;4477;48.736;9.176;2024-01-25T13:41:00;5.22;;;1.92;;
8881;SDS011;4477;48.736;9.176;2024-01-25T13:43:27;6.95;;;2.00;;
8881;SDS011;4477;48.736;9.176;2024-01-25T13:45:56;5.82;;;1.85;;
8881;SDS011;4477;48.736;9.176;2024-01-25T13:48:23;7.45;;;2.13;;
8881;SDS011;4477;48.736;9.176;2024-01-25T13:50:50;5.28;;;1.70;;
8881;SDS011;4477;48.736;9.176;2024-01-25T13:53:17;7.90;;;2.17;;
8881;SDS011;4477;48.736;9.176;2024-01-25T13:55:44;4.67;;;1.83;;
8881;SDS011;4477;48.736;9.176;2024-01-25T13:58:11;8.43;;;2.33;;
8881;SDS011;4477;48.736;9.176;2024-01-25T14:00:37;6.07;;;2.17;;
8881;SDS011;4477;48.736;9.176;2024-01-25T14:03:07;8.63;;;2.13;;
8881;SDS011;4477;48.736;9.176;2024-01-25T14:05:34;4.83;;;1.87;;
8881;SDS011;4477;48.736;9.176;2024-01-25T14:08:01;6.37;;;2.20;;
8881;SDS011;4477;48.736;9.176;2024-01-25T14:10:28;6.07;;;2.27;;
8881;SDS011;4477;48.736;9.176;2024-01-25T14:12:55;7.67;;;2.00;;
8881;SDS011;4477;48.736;9.176;2024-01-25T14:15:22;7.63;;;2.60;;
8881;SDS011;4477;48.736;9.176;2024-01-25T14:17:49;9.17;;;2.13;;
8881;SDS011;4477;48.736;9.176;2024-01-25T14:20:17;9.37;;;2.20;;
8881;SDS011;4477;48.736;9.176;2024-01-25T14:22:44;7.83;;;2.40;;
8881;SDS011;4477;48.736;9.176;2024-01-25T14:25:11;5.80;;;2.13;;
8881;SDS011;4477;48.736;9.176;2024-01-25T14:27:38;7.03;;;2.23;;
8881;SDS011;4477;48.736;9.176;2024-01-25T14:30:05;6.27;;;2.30;;
8881;SDS011;4477;48.736;9.176;2024-01-25T14:32:33;8.37;;;2.30;;
8881;SDS011;4477;48.736;9.176;2024-01-25T14:35:00;7.73;;;2.30;;
8881;SDS011;4477;48.736;9.176;2024-01-25T14:37:28;4.50;;;2.00;;
8881;SDS011;4477;48.736;9.176;2024-01-25T14:39:56;9.40;;;1.93;;
8881;SDS011;4477;48.736;9.176;2024-01-25T14:42:23;8.13;;;1.93;;
8881;SDS011;4477;48.736;9.176;2024-01-25T14:44:50;6.13;;;2.70;;
8881;SDS011;4477;48.736;9.176;2024-01-25T14:47:17;12.83;;;2.70;;
8881;SDS011;4477;48.736;9.176;2024-01-25T14:49:47;8.77;;;2.73;;
8881;SDS011;4477;48.736;9.176;2024-01-25T14:52:14;9.37;;;2.43;;
8881;SDS011;4477;48.736;9.176;2024-01-25T14:54:42;9.43;;;2.60;;
8881;SDS011;4477;48.736;9.176;2024-01-25T14:57:10;6.67;;;2.83;;
8881;SDS011;4477;48.736;9.176;2024-01-25T14:59:37;8.27;;;2.87;;
8881;SDS011;4477;48.736;9.176;2024-01-25T15:02:04;7.27;;;2.50;;
8881;SDS011;4477;48.736;9.176;2024-01-25T15:04:31;12.73;;;2.87;;
8881;SDS011;4477;48.736;9.176;2024-01-25T15:06:58;10.23;;;3.23;;